sensor_id;sensor_type;location;lat;lon;timestamp;P1;P2;P0
70570;PMS5003;58135;50.948;-1.458;2022-12-29T00:00:12;5;2;
70570;PMS5003;58135;50.948;-1.458;2022-12-29T00:01:12;7;4;
70570;PMS5003;58135;50.948;-1.458;2022-12-29T00:02:13;7;3;
70570;PMS5003;58135;50.948;-1.458;2022-12-29T00:03:13;4;3;
70570;PMS5003;58135;50.948;-1.458;2022-12-29T00:04:14;9;8;
70570;PMS5003;58135;50.948;-1.458;2022-12-29T00:05:14;10;5;
70570;PMS5003;58135;50.948;-1.458;2022-12-29T00:06:14;9;7;
70570;PMS5003;58135;50.948;-1.458;2022-12-29T00:07:15;6;5;
70570;PMS5003;58135;50.948;-1.458;2022-12-29T00:08:14;8;4;
70570;PMS5003;58135;50.948;-1.458;2022-12-29T00:09:15;9;7;
70570;PMS5003;58135;50.948;-1.458;2022-12-29T00:10:16;8;7;
70570;PMS5003;58135;50.948;-1.458;2022-12-29T00:11:16;10;4;
70570;PMS5003;58135;50.948;-1.458;2022-12-29T00:12:16;10;8;
70570;PMS5003;58135;50.948;-1.458;2022-12-29T00:13:17;10;8;
70570;PMS5003;58135;50.948;-1.458;2022-12-29T00:14:17;9;6;
70570;PMS5003;58135;50.948;-1.458;2022-12-29T00:15:17;7;5;
70570;PMS5003;58135;50.948;-1.458;2022-12-29T00:16:18;8;4;
70570;PMS5003;58135;50.948;-1.458;2022-12-29T00:17:19;5;3;
70570;PMS5003;58135;50.948;-1.458;2022-12-29T00:18:19;7;4;
70570;PMS5003;58135;50.948;-1.458;2022-12-29T00:19:20;10;8;
70570;PMS5003;58135;50.948;-1.458;2022-12-29T00:20:20;7;6;
70570;PMS5003;58135;50.948;-1.458;2022-12-29T00:21:22;10;5;
70570;PMS5003;58135;50.948;-1.458;2022-12-29T00:22:22;11;9;
70570;PMS5003;58135;50.948;-1.458;2022-12-29T00:23:23;12;7;
70570;PMS5003;58135;50.948;-1.458;2022-12-29T00:24:23;7;3;
70570;PMS5003;58135;50.948;-1.458;2022-12-29T00:25:23;10;6;
70570;PMS5003;58135;50.948;-1.458;2022-12-29T00:26:23;7;5;
70570;PMS5003;58135;50.948;-1.458;2022-12-29T00:27:23;9;5;
70570;PMS5003;58135;50.948;-1.458;2022-12-29T00:28:23;10;6;
70570;PMS5003;58135;50.948;-1.458;2022-12-29T00:29:24;7;4;
70570;PMS5003;58135;50.948;-1.458;2022-12-29T00:30:24;8;4;
70570;PMS5003;58135;50.948;-1.458;2022-12-29T00:31:25;12;8;
70570;PMS5003;58135;50.948;-1.458;2022-12-29T00:32:25;9;7;
70570;PMS5003;58135;50.948;-1.458;2022-12-29T00:33:26;9;6;
70570;PMS5003;58135;50.948;-1.458;2022-12-29T00:34:26;13;4;
70570;PMS5003;58135;50.948;-1.458;2022-12-29T00:35:28;5;4;
70570;PMS5003;58135;50.948;-1.458;2022-12-29T00:36:27;17;12;
70570;PMS5003;58135;50.948;-1.458;2022-12-29T00:37:27;13;10;
70570;PMS5003;58135;50.948;-1.458;2022-12-29T00:38:27;8;5;
70570;PMS5003;58135;50.948;-1.458;2022-12-29T00:39:28;8;6;
70570;PMS5003;58135;50.948;-1.458;2022-12-29T00:40:28;8;4;
70570;PMS5003;58135;50.948;-1.458;2022-12-29T00:41:28;8;3;
70570;PMS5003;58135;50.948;-1.458;2022-12-29T00:42:29;6;5;
70570;PMS5003;58135;50.948;-1.458;2022-12-29T00:43:29;9;6;
70570;PMS5003;58135;50.948;-1.458;2022-12-29T00:44:29;5;4;
70570;PMS5003;58135;50.948;-1.458;2022-12-29T00:45:29;6;5;
70570;PMS5003;58135;50.948;-1.458;2022-12-29T00:46:29;8;5;
70570;PMS5003;58135;50.948;-1.458;2022-12-29T00:47:29;4;4;
70570;PMS5003;58135;50.948;-1.458;2022-12-29T00:48:30;5;4;
70570;PMS5003;58135;50.948;-1.458;2022-12-29T00:49:30;6;3;
70570;PMS5003;58135;50.948;-1.458;2022-12-29T00:50:30;6;4;
70570;PMS5003;58135;50.948;-1.458;2022-12-29T00:51:30;9;5;
70570;PMS5003;58135;50.948;-1.458;2022-12-29T00:52:30;6;4;
70570;PMS5003;58135;50.948;-1.458;2022-12-29T00:53:30;9;5;
70570;PMS5003;58135;50.948;-1.458;2022-12-29T00:54:32;8;4;
70570;PMS5003;58135;50.948;-1.458;2022-12-29T00:55:31;4;2;
70570;PMS5003;58135;50.948;-1.458;2022-12-29T00:56:31;7;4;
70570;PMS5003;58135;50.948;-1.458;2022-12-29T00:57:31;6;3;
70570;PMS5003;58135;50.948;-1.458;2022-12-29T00:58:31;8;6;
70570;PMS5003;58135;50.948;-1.458;2022-12-29T00:59:32;6;5;
70570;PMS5003;58135;50.948;-1.458;2022-12-29T01:00:32;8;5;
70570;PMS5003;58135;50.948;-1.458;2022-12-29T01:01:32;6;4;
70570;PMS5003;58135;50.948;-1.458;2022-12-29T01:02:33;9;4;
70570;PMS5003;58135;50.948;-1.458;2022-12-29T01:03:33;4;4;
70570;PMS5003;58135;50.948;-1.458;2022-12-29T01:04:33;5;4;
70570;PMS5003;58135;50.948;-1.458;2022-12-29T01:05:35;5;4;
70570;PMS5003;58135;50.948;-1.458;2022-12-29T01:06:34;9;6;
70570;PMS5003;58135;50.948;-1.458;2022-12-29T01:07:34;11;7;
70570;PMS5003;58135;50.948;-1.458;2022-12-29T01:08:35;7;4;
70570;PMS5003;58135;50.948;-1.458;2022-12-29T01:09:35;7;5;
70570;PMS5003;58135;50.948;-1.458;2022-12-29T01:10:35;5;4;
70570;PMS5003;58135;50.948;-1.458;2022-12-29T01:11:36;9;5;
70570;PMS5003;58135;50.948;-1.458;2022-12-29T01:12:36;5;5;
70570;PMS5003;58135;50.948;-1.458;2022-12-29T01:13:36;9;7;
70570;PMS5003;58135;50.948;-1.458;2022-12-29T01:14:37;5;3;
70570;PMS5003;58135;50.948;-1.458;2022-12-29T01:15:37;5;4;
70570;PMS5003;58135;50.948;-1.458;2022-12-29T01:16:37;9;7;
70570;PMS5003;58135;50.948;-1.458;2022-12-29T01:17:38;16;11;
70570;PMS5003;58135;50.948;-1.458;2022-12-29T01:18:38;10;4;
70570;PMS5003;58135;50.948;-1.458;2022-12-29T01:19:38;8;3;
70570;PMS5003;58135;50.948;-1.458;2022-12-29T01:20:39;8;7;
70570;PMS5003;58135;50.948;-1.458;2022-12-29T01:21:39;6;5;
70570;PMS5003;58135;50.948;-1.458;2022-12-29T01:22:39;8;5;
70570;PMS5003;58135;50.948;-1.458;2022-12-29T01:23:40;11;7;
70570;PMS5003;58135;50.948;-1.458;2022-12-29T01:24:41;8;7;
70570;PMS5003;58135;50.948;-1.458;2022-12-29T01:25:41;7;5;
70570;PMS5003;58135;50.948;-1.458;2022-12-29T01:26:41;6;4;
70570;PMS5003;58135;50.948;-1.458;2022-12-29T01:27:42;12;6;
70570;PMS5003;58135;50.948;-1.458;2022-12-29T01:28:42;7;6;
70570;PMS5003;58135;50.948;-1.458;2022-12-29T01:29:42;6;5;
70570;PMS5003;58135;50.948;-1.458;2022-12-29T01:30:42;6;4;
70570;PMS5003;58135;50.948;-1.458;2022-12-29T01:31:43;11;8;
70570;PMS5003;58135;50.948;-1.458;2022-12-29T01:32:43;14;7;
70570;PMS5003;58135;50.948;-1.458;2022-12-29T01:33:43;7;5;
70570;PMS5003;58135;50.948;-1.458;2022-12-29T01:34:44;6;4;
70570;PMS5003;58135;50.948;-1.458;2022-12-29T01:35:44;9;5;
70570;PMS5003;58135;50.948;-1.458;2022-12-29T01:36:45;7;4;
70570;PMS5003;58135;50.948;-1.458;2022-12-29T01:37:45;8;6;
70570;PMS5003;58135;50.948;-1.458;2022-12-29T01:38:46;9;7;
70570;PMS5003;58135;50.948;-1.458;2022-12-29T01:39:46;11;7;
70570;PMS5003;58135;50.948;-1.458;2022-12-29T01:40:47;9;8;
70570;PMS5003;58135;50.948;-1.458;2022-12-29T01:41:48;12;11;
70570;PMS5003;58135;50.948;-1.458;2022-12-29T01:42:48;9;6;
70570;PMS5003;58135;50.948;-1.458;2022-12-29T01:43:48;10;9;
70570;PMS5003;58135;50.948;-1.458;2022-12-29T01:44:50;9;5;
70570;PMS5003;58135;50.948;-1.458;2022-12-29T01:45:49;12;9;
70570;PMS5003;58135;50.948;-1.458;2022-12-29T01:46:48;6;4;
70570;PMS5003;58135;50.948;-1.458;2022-12-29T01:47:50;10;6;
70570;PMS5003;58135;50.948;-1.458;2022-12-29T01:48:50;7;4;
70570;PMS5003;58135;50.948;-1.458;2022-12-29T01:49:50;14;11;
70570;PMS5003;58135;50.948;-1.458;2022-12-29T01:50:50;11;8;
70570;PMS5003;58135;50.948;-1.458;2022-12-29T01:51:51;13;8;
70570;PMS5003;58135;50.948;-1.458;2022-12-29T01:52:52;14;9;
70570;PMS5003;58135;50.948;-1.458;2022-12-29T01:53:52;12;7;
70570;PMS5003;58135;50.948;-1.458;2022-12-29T01:54:53;10;7;
70570;PMS5003;58135;50.948;-1.458;2022-12-29T01:55:54;15;11;
70570;PMS5003;58135;50.948;-1.458;2022-12-29T01:56:53;8;6;
70570;PMS5003;58135;50.948;-1.458;2022-12-29T01:57:55;13;10;
70570;PMS5003;58135;50.948;-1.458;2022-12-29T01:58:59;13;11;
70570;PMS5003;58135;50.948;-1.458;2022-12-29T01:59:56;7;6;
70570;PMS5003;58135;50.948;-1.458;2022-12-29T02:00:56;12;7;
70570;PMS5003;58135;50.948;-1.458;2022-12-29T02:01:56;14;11;
70570;PMS5003;58135;50.948;-1.458;2022-12-29T02:02:57;13;11;
70570;PMS5003;58135;50.948;-1.458;2022-12-29T02:03:58;14;9;
70570;PMS5003;58135;50.948;-1.458;2022-12-29T02:04:58;13;10;
70570;PMS5003;58135;50.948;-1.458;2022-12-29T02:06:00;12;7;
70570;PMS5003;58135;50.948;-1.458;2022-12-29T02:07:00;8;6;
70570;PMS5003;58135;50.948;-1.458;2022-12-29T02:07:59;11;8;
70570;PMS5003;58135;50.948;-1.458;2022-12-29T02:08:59;9;5;
70570;PMS5003;58135;50.948;-1.458;2022-12-29T02:09:59;11;9;
70570;PMS5003;58135;50.948;-1.458;2022-12-29T02:11:01;11;6;
70570;PMS5003;58135;50.948;-1.458;2022-12-29T02:12:01;5;5;
70570;PMS5003;58135;50.948;-1.458;2022-12-29T02:13:01;13;7;
70570;PMS5003;58135;50.948;-1.458;2022-12-29T02:14:01;11;8;
70570;PMS5003;58135;50.948;-1.458;2022-12-29T02:15:03;11;9;
70570;PMS5003;58135;50.948;-1.458;2022-12-29T02:16:05;11;8;
70570;PMS5003;58135;50.948;-1.458;2022-12-29T02:17:05;9;5;
70570;PMS5003;58135;50.948;-1.458;2022-12-29T02:18:07;7;5;
70570;PMS5003;58135;50.948;-1.458;2022-12-29T02:19:08;10;6;
70570;PMS5003;58135;50.948;-1.458;2022-12-29T02:20:13;9;5;
70570;PMS5003;58135;50.948;-1.458;2022-12-29T02:21:14;8;6;
70570;PMS5003;58135;50.948;-1.458;2022-12-29T02:22:05;12;8;
70570;PMS5003;58135;50.948;-1.458;2022-12-29T02:23:11;9;5;
70570;PMS5003;58135;50.948;-1.458;2022-12-29T02:24:10;5;4;
70570;PMS5003;58135;50.948;-1.458;2022-12-29T02:25:14;9;6;
70570;PMS5003;58135;50.948;-1.458;2022-12-29T02:26:11;4;2;
70570;PMS5003;58135;50.948;-1.458;2022-12-29T02:27:12;8;7;
70570;PMS5003;58135;50.948;-1.458;2022-12-29T02:28:32;8;6;
70570;PMS5003;58135;50.948;-1.458;2022-12-29T02:29:11;9;4;
70570;PMS5003;58135;50.948;-1.458;2022-12-29T02:30:07;6;3;
70570;PMS5003;58135;50.948;-1.458;2022-12-29T02:31:08;10;7;
70570;PMS5003;58135;50.948;-1.458;2022-12-29T02:32:07;10;5;
70570;PMS5003;58135;50.948;-1.458;2022-12-29T02:33:09;8;5;
70570;PMS5003;58135;50.948;-1.458;2022-12-29T02:34:10;8;7;
70570;PMS5003;58135;50.948;-1.458;2022-12-29T02:35:09;5;5;
70570;PMS5003;58135;50.948;-1.458;2022-12-29T02:36:10;8;5;
70570;PMS5003;58135;50.948;-1.458;2022-12-29T02:37:09;9;5;
70570;PMS5003;58135;50.948;-1.458;2022-12-29T02:38:11;8;7;
70570;PMS5003;58135;50.948;-1.458;2022-12-29T02:39:10;8;6;
70570;PMS5003;58135;50.948;-1.458;2022-12-29T02:40:13;8;5;
70570;PMS5003;58135;50.948;-1.458;2022-12-29T02:41:11;11;9;
70570;PMS5003;58135;50.948;-1.458;2022-12-29T02:42:11;7;5;
70570;PMS5003;58135;50.948;-1.458;2022-12-29T02:43:14;7;6;
70570;PMS5003;58135;50.948;-1.458;2022-12-29T02:44:11;9;7;
70570;PMS5003;58135;50.948;-1.458;2022-12-29T02:45:11;14;8;
70570;PMS5003;58135;50.948;-1.458;2022-12-29T02:46:12;11;7;
70570;PMS5003;58135;50.948;-1.458;2022-12-29T02:47:11;9;6;
70570;PMS5003;58135;50.948;-1.458;2022-12-29T02:48:14;11;9;
70570;PMS5003;58135;50.948;-1.458;2022-12-29T02:49:13;18;11;
70570;PMS5003;58135;50.948;-1.458;2022-12-29T02:50:13;14;7;
70570;PMS5003;58135;50.948;-1.458;2022-12-29T02:51:15;11;8;
70570;PMS5003;58135;50.948;-1.458;2022-12-29T02:52:14;20;8;
70570;PMS5003;58135;50.948;-1.458;2022-12-29T02:53:14;16;9;
70570;PMS5003;58135;50.948;-1.458;2022-12-29T02:54:17;9;6;
70570;PMS5003;58135;50.948;-1.458;2022-12-29T02:55:14;7;5;
70570;PMS5003;58135;50.948;-1.458;2022-12-29T02:56:14;12;6;
70570;PMS5003;58135;50.948;-1.458;2022-12-29T02:57:26;9;6;
70570;PMS5003;58135;50.948;-1.458;2022-12-29T02:58:17;15;9;
70570;PMS5003;58135;50.948;-1.458;2022-12-29T02:59:16;8;4;
70570;PMS5003;58135;50.948;-1.458;2022-12-29T03:00:16;11;7;
70570;PMS5003;58135;50.948;-1.458;2022-12-29T03:01:21;8;4;
70570;PMS5003;58135;50.948;-1.458;2022-12-29T03:02:21;14;11;
70570;PMS5003;58135;50.948;-1.458;2022-12-29T03:03:19;12;6;
70570;PMS5003;58135;50.948;-1.458;2022-12-29T03:04:20;11;6;
70570;PMS5003;58135;50.948;-1.458;2022-12-29T03:05:23;16;13;
70570;PMS5003;58135;50.948;-1.458;2022-12-29T03:06:25;11;9;
70570;PMS5003;58135;50.948;-1.458;2022-12-29T03:07:20;6;4;
70570;PMS5003;58135;50.948;-1.458;2022-12-29T03:08:22;7;7;
70570;PMS5003;58135;50.948;-1.458;2022-12-29T03:09:21;13;7;
70570;PMS5003;58135;50.948;-1.458;2022-12-29T03:10:23;7;5;
70570;PMS5003;58135;50.948;-1.458;2022-12-29T03:11:20;8;7;
70570;PMS5003;58135;50.948;-1.458;2022-12-29T03:12:24;9;6;
70570;PMS5003;58135;50.948;-1.458;2022-12-29T03:13:23;8;6;
70570;PMS5003;58135;50.948;-1.458;2022-12-29T03:14:23;10;6;
70570;PMS5003;58135;50.948;-1.458;2022-12-29T03:15:22;8;6;
70570;PMS5003;58135;50.948;-1.458;2022-12-29T03:16:22;13;10;
70570;PMS5003;58135;50.948;-1.458;2022-12-29T03:17:24;15;7;
70570;PMS5003;58135;50.948;-1.458;2022-12-29T03:18:24;12;9;
70570;PMS5003;58135;50.948;-1.458;2022-12-29T03:19:23;13;6;
70570;PMS5003;58135;50.948;-1.458;2022-12-29T03:20:23;10;6;
70570;PMS5003;58135;50.948;-1.458;2022-12-29T03:21:24;13;8;
70570;PMS5003;58135;50.948;-1.458;2022-12-29T03:22:25;11;7;
70570;PMS5003;58135;50.948;-1.458;2022-12-29T03:23:24;6;6;
70570;PMS5003;58135;50.948;-1.458;2022-12-29T03:24:25;7;6;
70570;PMS5003;58135;50.948;-1.458;2022-12-29T03:25:25;9;6;
70570;PMS5003;58135;50.948;-1.458;2022-12-29T03:26:25;6;3;
70570;PMS5003;58135;50.948;-1.458;2022-12-29T03:27:25;7;6;
70570;PMS5003;58135;50.948;-1.458;2022-12-29T03:28:26;10;6;
70570;PMS5003;58135;50.948;-1.458;2022-12-29T03:29:26;8;6;
70570;PMS5003;58135;50.948;-1.458;2022-12-29T03:30:26;12;6;
70570;PMS5003;58135;50.948;-1.458;2022-12-29T03:31:27;11;9;
70570;PMS5003;58135;50.948;-1.458;2022-12-29T03:32:28;9;6;
70570;PMS5003;58135;50.948;-1.458;2022-12-29T03:33:28;14;9;
70570;PMS5003;58135;50.948;-1.458;2022-12-29T03:34:28;12;8;
70570;PMS5003;58135;50.948;-1.458;2022-12-29T03:35:29;11;7;
70570;PMS5003;58135;50.948;-1.458;2022-12-29T03:36:30;9;6;
70570;PMS5003;58135;50.948;-1.458;2022-12-29T03:37:30;13;11;
70570;PMS5003;58135;50.948;-1.458;2022-12-29T03:38:31;11;8;
70570;PMS5003;58135;50.948;-1.458;2022-12-29T03:39:30;15;12;
70570;PMS5003;58135;50.948;-1.458;2022-12-29T03:40:30;11;5;
70570;PMS5003;58135;50.948;-1.458;2022-12-29T03:41:30;14;7;
70570;PMS5003;58135;50.948;-1.458;2022-12-29T03:42:31;19;14;
70570;PMS5003;58135;50.948;-1.458;2022-12-29T03:43:31;15;7;
70570;PMS5003;58135;50.948;-1.458;2022-12-29T03:44:33;16;7;
70570;PMS5003;58135;50.948;-1.458;2022-12-29T03:45:33;16;8;
70570;PMS5003;58135;50.948;-1.458;2022-12-29T03:46:33;9;6;
70570;PMS5003;58135;50.948;-1.458;2022-12-29T03:47:33;12;8;
70570;PMS5003;58135;50.948;-1.458;2022-12-29T03:48:33;12;7;
70570;PMS5003;58135;50.948;-1.458;2022-12-29T03:49:33;9;7;
70570;PMS5003;58135;50.948;-1.458;2022-12-29T03:50:34;11;9;
70570;PMS5003;58135;50.948;-1.458;2022-12-29T03:51:34;13;7;
70570;PMS5003;58135;50.948;-1.458;2022-12-29T03:52:35;14;9;
70570;PMS5003;58135;50.948;-1.458;2022-12-29T03:53:35;8;6;
70570;PMS5003;58135;50.948;-1.458;2022-12-29T03:54:35;11;4;
70570;PMS5003;58135;50.948;-1.458;2022-12-29T03:55:35;8;6;
70570;PMS5003;58135;50.948;-1.458;2022-12-29T03:56:36;16;9;
70570;PMS5003;58135;50.948;-1.458;2022-12-29T03:57:36;9;8;
70570;PMS5003;58135;50.948;-1.458;2022-12-29T03:58:36;14;9;
70570;PMS5003;58135;50.948;-1.458;2022-12-29T03:59:37;12;7;
70570;PMS5003;58135;50.948;-1.458;2022-12-29T04:00:37;8;5;
70570;PMS5003;58135;50.948;-1.458;2022-12-29T04:01:37;10;8;
70570;PMS5003;58135;50.948;-1.458;2022-12-29T04:02:38;14;6;
70570;PMS5003;58135;50.948;-1.458;2022-12-29T04:03:38;6;5;
70570;PMS5003;58135;50.948;-1.458;2022-12-29T04:04:38;6;5;
70570;PMS5003;58135;50.948;-1.458;2022-12-29T04:05:39;6;5;
70570;PMS5003;58135;50.948;-1.458;2022-12-29T04:06:39;9;7;
70570;PMS5003;58135;50.948;-1.458;2022-12-29T04:07:40;9;6;
70570;PMS5003;58135;50.948;-1.458;2022-12-29T04:08:40;13;8;
70570;PMS5003;58135;50.948;-1.458;2022-12-29T04:09:41;8;7;
70570;PMS5003;58135;50.948;-1.458;2022-12-29T04:10:41;11;5;
70570;PMS5003;58135;50.948;-1.458;2022-12-29T04:11:42;10;7;
70570;PMS5003;58135;50.948;-1.458;2022-12-29T04:12:42;9;7;
70570;PMS5003;58135;50.948;-1.458;2022-12-29T04:13:42;9;6;
70570;PMS5003;58135;50.948;-1.458;2022-12-29T04:14:42;4;4;
70570;PMS5003;58135;50.948;-1.458;2022-12-29T04:15:42;9;7;
70570;PMS5003;58135;50.948;-1.458;2022-12-29T04:16:43;9;6;
70570;PMS5003;58135;50.948;-1.458;2022-12-29T04:17:43;4;4;
70570;PMS5003;58135;50.948;-1.458;2022-12-29T04:18:43;6;5;
70570;PMS5003;58135;50.948;-1.458;2022-12-29T04:19:45;4;4;
70570;PMS5003;58135;50.948;-1.458;2022-12-29T04:20:44;5;3;
70570;PMS5003;58135;50.948;-1.458;2022-12-29T04:21:44;5;3;
70570;PMS5003;58135;50.948;-1.458;2022-12-29T04:22:45;14;8;
70570;PMS5003;58135;50.948;-1.458;2022-12-29T04:23:46;5;3;
70570;PMS5003;58135;50.948;-1.458;2022-12-29T04:24:46;8;4;
70570;PMS5003;58135;50.948;-1.458;2022-12-29T04:25:46;8;5;
70570;PMS5003;58135;50.948;-1.458;2022-12-29T04:26:46;14;11;
70570;PMS5003;58135;50.948;-1.458;2022-12-29T04:27:47;5;3;
70570;PMS5003;58135;50.948;-1.458;2022-12-29T04:28:47;4;3;
70570;PMS5003;58135;50.948;-1.458;2022-12-29T04:29:47;6;3;
70570;PMS5003;58135;50.948;-1.458;2022-12-29T04:30:47;7;6;
70570;PMS5003;58135;50.948;-1.458;2022-12-29T04:31:47;6;5;
70570;PMS5003;58135;50.948;-1.458;2022-12-29T04:32:49;7;4;
70570;PMS5003;58135;50.948;-1.458;2022-12-29T04:33:47;4;3;
70570;PMS5003;58135;50.948;-1.458;2022-12-29T04:34:48;12;8;
70570;PMS5003;58135;50.948;-1.458;2022-12-29T04:35:48;6;4;
70570;PMS5003;58135;50.948;-1.458;2022-12-29T04:36:48;4;3;
70570;PMS5003;58135;50.948;-1.458;2022-12-29T04:37:50;15;9;
70570;PMS5003;58135;50.948;-1.458;2022-12-29T04:38:49;6;4;
70570;PMS5003;58135;50.948;-1.458;2022-12-29T04:39:49;4;4;
70570;PMS5003;58135;50.948;-1.458;2022-12-29T04:40:52;6;5;
70570;PMS5003;58135;50.948;-1.458;2022-12-29T04:41:50;10;4;
70570;PMS5003;58135;50.948;-1.458;2022-12-29T04:42:51;4;2;
70570;PMS5003;58135;50.948;-1.458;2022-12-29T04:43:51;7;3;
70570;PMS5003;58135;50.948;-1.458;2022-12-29T04:44:51;7;4;
70570;PMS5003;58135;50.948;-1.458;2022-12-29T04:45:53;6;3;
70570;PMS5003;58135;50.948;-1.458;2022-12-29T04:46:52;2;2;
70570;PMS5003;58135;50.948;-1.458;2022-12-29T04:47:53;6;6;
70570;PMS5003;58135;50.948;-1.458;2022-12-29T04:48:54;9;4;
70570;PMS5003;58135;50.948;-1.458;2022-12-29T04:49:54;6;4;
70570;PMS5003;58135;50.948;-1.458;2022-12-29T04:50:53;5;4;
70570;PMS5003;58135;50.948;-1.458;2022-12-29T04:51:54;3;3;
70570;PMS5003;58135;50.948;-1.458;2022-12-29T04:52:54;4;3;
70570;PMS5003;58135;50.948;-1.458;2022-12-29T04:53:55;4;3;
70570;PMS5003;58135;50.948;-1.458;2022-12-29T04:54:55;2;2;
70570;PMS5003;58135;50.948;-1.458;2022-12-29T04:55:55;3;2;
70570;PMS5003;58135;50.948;-1.458;2022-12-29T04:56:56;5;2;
70570;PMS5003;58135;50.948;-1.458;2022-12-29T04:57:56;4;3;
70570;PMS5003;58135;50.948;-1.458;2022-12-29T04:58:56;5;3;
70570;PMS5003;58135;50.948;-1.458;2022-12-29T04:59:56;5;4;
70570;PMS5003;58135;50.948;-1.458;2022-12-29T05:00:57;2;1;
70570;PMS5003;58135;50.948;-1.458;2022-12-29T05:01:57;4;2;
70570;PMS5003;58135;50.948;-1.458;2022-12-29T05:02:57;2;2;
70570;PMS5003;58135;50.948;-1.458;2022-12-29T05:03:57;3;3;
70570;PMS5003;58135;50.948;-1.458;2022-12-29T05:04:57;2;2;
70570;PMS5003;58135;50.948;-1.458;2022-12-29T05:05:57;1;1;
70570;PMS5003;58135;50.948;-1.458;2022-12-29T05:06:58;1;0;
70570;PMS5003;58135;50.948;-1.458;2022-12-29T05:07:58;4;1;
70570;PMS5003;58135;50.948;-1.458;2022-12-29T05:08:58;3;2;
70570;PMS5003;58135;50.948;-1.458;2022-12-29T05:09:59;8;5;
70570;PMS5003;58135;50.948;-1.458;2022-12-29T05:10:59;3;2;
70570;PMS5003;58135;50.948;-1.458;2022-12-29T05:11:59;3;1;
70570;PMS5003;58135;50.948;-1.458;2022-12-29T05:12:59;1;1;
70570;PMS5003;58135;50.948;-1.458;2022-12-29T05:13:59;3;2;
70570;PMS5003;58135;50.948;-1.458;2022-12-29T05:14:59;1;1;
70570;PMS5003;58135;50.948;-1.458;2022-12-29T05:15:59;3;2;
70570;PMS5003;58135;50.948;-1.458;2022-12-29T05:16:59;1;1;
70570;PMS5003;58135;50.948;-1.458;2022-12-29T05:18:00;1;0;
70570;PMS5003;58135;50.948;-1.458;2022-12-29T05:19:00;4;3;
70570;PMS5003;58135;50.948;-1.458;2022-12-29T05:20:01;3;1;
70570;PMS5003;58135;50.948;-1.458;2022-12-29T05:21:01;0;0;
70570;PMS5003;58135;50.948;-1.458;2022-12-29T05:22:01;2;2;
70570;PMS5003;58135;50.948;-1.458;2022-12-29T05:23:01;0;0;
70570;PMS5003;58135;50.948;-1.458;2022-12-29T05:24:01;1;1;
70570;PMS5003;58135;50.948;-1.458;2022-12-29T05:25:01;3;1;
70570;PMS5003;58135;50.948;-1.458;2022-12-29T05:26:01;0;0;
70570;PMS5003;58135;50.948;-1.458;2022-12-29T05:27:02;3;2;
70570;PMS5003;58135;50.948;-1.458;2022-12-29T05:28:02;1;1;
70570;PMS5003;58135;50.948;-1.458;2022-12-29T05:29:03;2;0;
70570;PMS5003;58135;50.948;-1.458;2022-12-29T05:30:03;1;1;
70570;PMS5003;58135;50.948;-1.458;2022-12-29T05:31:02;1;0;
70570;PMS5003;58135;50.948;-1.458;2022-12-29T05:32:03;1;0;
70570;PMS5003;58135;50.948;-1.458;2022-12-29T05:33:02;2;2;
70570;PMS5003;58135;50.948;-1.458;2022-12-29T05:34:02;1;0;
70570;PMS5003;58135;50.948;-1.458;2022-12-29T05:35:03;2;1;
70570;PMS5003;58135;50.948;-1.458;2022-12-29T05:36:03;0;0;
70570;PMS5003;58135;50.948;-1.458;2022-12-29T05:37:03;2;1;
70570;PMS5003;58135;50.948;-1.458;2022-12-29T05:38:03;2;0;
70570;PMS5003;58135;50.948;-1.458;2022-12-29T05:39:03;2;1;
70570;PMS5003;58135;50.948;-1.458;2022-12-29T05:40:04;1;0;
70570;PMS5003;58135;50.948;-1.458;2022-12-29T05:41:04;5;1;
70570;PMS5003;58135;50.948;-1.458;2022-12-29T05:42:04;0;0;
70570;PMS5003;58135;50.948;-1.458;2022-12-29T05:43:04;1;0;
70570;PMS5003;58135;50.948;-1.458;2022-12-29T05:44:04;2;0;
70570;PMS5003;58135;50.948;-1.458;2022-12-29T05:45:05;1;0;
70570;PMS5003;58135;50.948;-1.458;2022-12-29T05:46:04;0;0;
70570;PMS5003;58135;50.948;-1.458;2022-12-29T05:47:04;1;1;
70570;PMS5003;58135;50.948;-1.458;2022-12-29T05:48:05;2;1;
70570;PMS5003;58135;50.948;-1.458;2022-12-29T05:49:05;0;0;
70570;PMS5003;58135;50.948;-1.458;2022-12-29T05:50:05;0;0;
70570;PMS5003;58135;50.948;-1.458;2022-12-29T05:51:05;0;0;
70570;PMS5003;58135;50.948;-1.458;2022-12-29T05:52:05;0;0;
70570;PMS5003;58135;50.948;-1.458;2022-12-29T05:53:06;1;1;
70570;PMS5003;58135;50.948;-1.458;2022-12-29T05:54:05;0;0;
70570;PMS5003;58135;50.948;-1.458;2022-12-29T05:55:06;0;0;
70570;PMS5003;58135;50.948;-1.458;2022-12-29T05:56:06;3;3;
70570;PMS5003;58135;50.948;-1.458;2022-12-29T05:57:06;3;0;
70570;PMS5003;58135;50.948;-1.458;2022-12-29T05:58:07;1;0;
70570;PMS5003;58135;50.948;-1.458;2022-12-29T05:59:07;0;0;
70570;PMS5003;58135;50.948;-1.458;2022-12-29T06:00:08;0;0;
70570;PMS5003;58135;50.948;-1.458;2022-12-29T06:01:08;0;0;
70570;PMS5003;58135;50.948;-1.458;2022-12-29T06:02:08;1;1;
70570;PMS5003;58135;50.948;-1.458;2022-12-29T06:03:08;1;0;
70570;PMS5003;58135;50.948;-1.458;2022-12-29T06:04:08;4;3;
70570;PMS5003;58135;50.948;-1.458;2022-12-29T06:05:08;1;0;
70570;PMS5003;58135;50.948;-1.458;2022-12-29T06:06:09;0;0;
70570;PMS5003;58135;50.948;-1.458;2022-12-29T06:07:09;1;1;
70570;PMS5003;58135;50.948;-1.458;2022-12-29T06:08:09;0;0;
70570;PMS5003;58135;50.948;-1.458;2022-12-29T06:09:09;0;0;
70570;PMS5003;58135;50.948;-1.458;2022-12-29T06:10:09;0;0;
70570;PMS5003;58135;50.948;-1.458;2022-12-29T06:11:09;1;0;
70570;PMS5003;58135;50.948;-1.458;2022-12-29T06:12:09;0;0;
70570;PMS5003;58135;50.948;-1.458;2022-12-29T06:13:09;1;0;
70570;PMS5003;58135;50.948;-1.458;2022-12-29T06:14:10;2;0;
70570;PMS5003;58135;50.948;-1.458;2022-12-29T06:15:10;1;0;
70570;PMS5003;58135;50.948;-1.458;2022-12-29T06:16:10;3;1;
70570;PMS5003;58135;50.948;-1.458;2022-12-29T06:17:10;2;2;
70570;PMS5003;58135;50.948;-1.458;2022-12-29T06:18:10;0;0;
70570;PMS5003;58135;50.948;-1.458;2022-12-29T06:19:10;1;0;
70570;PMS5003;58135;50.948;-1.458;2022-12-29T06:20:11;1;1;
70570;PMS5003;58135;50.948;-1.458;2022-12-29T06:21:11;2;0;
70570;PMS5003;58135;50.948;-1.458;2022-12-29T06:22:11;3;1;
70570;PMS5003;58135;50.948;-1.458;2022-12-29T06:23:11;1;0;
70570;PMS5003;58135;50.948;-1.458;2022-12-29T06:24:11;2;1;
70570;PMS5003;58135;50.948;-1.458;2022-12-29T06:25:11;0;0;
70570;PMS5003;58135;50.948;-1.458;2022-12-29T06:26:12;2;0;
70570;PMS5003;58135;50.948;-1.458;2022-12-29T06:27:12;5;3;
70570;PMS5003;58135;50.948;-1.458;2022-12-29T06:28:12;0;0;
70570;PMS5003;58135;50.948;-1.458;2022-12-29T06:29:13;1;0;
70570;PMS5003;58135;50.948;-1.458;2022-12-29T06:30:13;1;1;
70570;PMS5003;58135;50.948;-1.458;2022-12-29T06:31:13;3;2;
70570;PMS5003;58135;50.948;-1.458;2022-12-29T06:32:13;2;0;
70570;PMS5003;58135;50.948;-1.458;2022-12-29T06:33:13;1;1;
70570;PMS5003;58135;50.948;-1.458;2022-12-29T06:34:14;1;0;
70570;PMS5003;58135;50.948;-1.458;2022-12-29T06:35:13;2;1;
70570;PMS5003;58135;50.948;-1.458;2022-12-29T06:36:14;3;2;
70570;PMS5003;58135;50.948;-1.458;2022-12-29T06:37:14;1;0;
70570;PMS5003;58135;50.948;-1.458;2022-12-29T06:38:14;1;1;
70570;PMS5003;58135;50.948;-1.458;2022-12-29T06:39:14;1;0;
70570;PMS5003;58135;50.948;-1.458;2022-12-29T06:40:14;4;1;
70570;PMS5003;58135;50.948;-1.458;2022-12-29T06:41:14;0;0;
70570;PMS5003;58135;50.948;-1.458;2022-12-29T06:42:15;1;0;
70570;PMS5003;58135;50.948;-1.458;2022-12-29T06:43:15;0;0;
70570;PMS5003;58135;50.948;-1.458;2022-12-29T06:44:15;1;1;